Terminal Aerodrome Forecast
Issued by NWS Wakefield, VA

Current Version | Previous Version | Text Only | Print | Product List | Glossary On
Versions: 1 2 3 4 5 6 7 8 9 10 11 12
000
FTUS41 KAKQ 131720
TAFRIC
TAF
KRIC 131720Z 1318/1418 27012G20KT P6SM SCT250
     FM132200 23008KT P6SM BKN150
     FM140600 21010KT P6SM SCT250=

USA.gov is the U.S. government's official web portal to all federal, state and local government web resources and services.